createdAt,value
2024-05-09T00:00:44.330Z,41.84
2024-05-09T00:03:31.399Z,41.83
2024-05-09T00:05:58.632Z,41.81
2024-05-09T00:08:25.444Z,41.79
2024-05-09T00:10:52.755Z,42.06
2024-05-09T00:13:19.952Z,42.10
2024-05-09T00:15:46.683Z,42.13
2024-05-09T00:18:13.768Z,42.12
2024-05-09T00:20:41.508Z,42.22
2024-05-09T00:23:15.662Z,42.17
2024-05-09T00:25:43.702Z,42.29
2024-05-09T00:28:11.925Z,42.27
2024-05-09T00:30:38.779Z,42.33
2024-05-09T00:33:07.008Z,42.40
2024-05-09T00:35:35.401Z,42.44
2024-05-09T00:38:02.485Z,42.54
2024-05-09T00:40:40.845Z,42.63
2024-05-09T00:43:11.092Z,42.51
2024-05-09T00:45:38.325Z,42.63
2024-05-09T00:48:08.409Z,42.63
2024-05-09T00:50:40.058Z,42.70
2024-05-09T00:53:08.253Z,42.74
2024-05-09T00:55:37.368Z,42.72
2024-05-09T00:58:05.660Z,42.83
2024-05-09T01:00:38.829Z,42.82
2024-05-09T01:03:09.747Z,42.84
2024-05-09T01:05:38.834Z,42.84
2024-05-09T01:08:06.542Z,42.87
2024-05-09T01:10:35.247Z,43.05
2024-05-09T01:13:04.403Z,43.09
2024-05-09T01:15:31.625Z,43.02
2024-05-09T01:18:01.499Z,43.24
2024-05-09T01:20:39.169Z,43.22
2024-05-09T01:23:09.707Z,43.20
2024-05-09T01:25:37.414Z,43.26
2024-05-09T01:28:05.032Z,43.37
2024-05-09T01:30:35.415Z,43.44
2024-05-09T01:33:06.771Z,43.53
2024-05-09T01:35:35.565Z,43.47
2024-05-09T01:38:02.552Z,43.58
2024-05-09T01:40:37.145Z,43.68
2024-05-09T01:43:07.371Z,43.72
2024-05-09T01:45:34.460Z,43.75
2024-05-09T01:48:02.260Z,43.82
2024-05-09T01:50:37.886Z,43.77
2024-05-09T01:53:10.189Z,43.81
2024-05-09T01:55:37.592Z,43.85
2024-05-09T01:58:04.617Z,43.86
2024-05-09T02:00:38.742Z,43.85
2024-05-09T02:03:15.637Z,44.00
2024-05-09T02:05:49.398Z,44.06
2024-05-09T02:08:21.337Z,43.98
2024-05-09T02:10:49.686Z,44.05
2024-05-09T02:13:17.197Z,44.17
2024-05-09T02:15:44.779Z,44.11
2024-05-09T02:18:12.216Z,44.36
2024-05-09T02:20:40.799Z,44.17
2024-05-09T02:23:09.185Z,44.30
2024-05-09T02:25:36.206Z,44.37
2024-05-09T02:28:03.076Z,44.47
2024-05-09T02:30:38.464Z,44.45
2024-05-09T02:33:09.940Z,44.51
2024-05-09T02:35:38.460Z,44.61
2024-05-09T02:38:05.557Z,44.56
2024-05-09T02:40:36.968Z,44.58
2024-05-09T02:43:07.130Z,44.85
2024-05-09T02:45:34.235Z,44.59
2024-05-09T02:48:01.877Z,44.65
2024-05-09T02:50:34.756Z,44.85
2024-05-09T02:53:09.623Z,44.87
2024-05-09T02:55:40.863Z,44.78
2024-05-09T02:58:08.170Z,44.88
2024-05-09T03:00:39.584Z,44.96
2024-05-09T03:03:11.433Z,45.03
2024-05-09T03:05:41.607Z,45.04
2024-05-09T03:08:08.711Z,45.13
2024-05-09T03:10:38.328Z,45.21
2024-05-09T03:13:07.753Z,45.17
2024-05-09T03:15:34.761Z,45.22
2024-05-09T03:18:01.977Z,45.27
2024-05-09T03:20:34.101Z,45.18
2024-05-09T03:23:03.597Z,45.40
2024-05-09T03:25:30.911Z,45.39
2024-05-09T03:27:57.688Z,45.53
2024-05-09T03:30:36.117Z,45.57
2024-05-09T03:33:13.366Z,45.60
2024-05-09T03:35:41.230Z,45.53
2024-05-09T03:38:08.567Z,45.56
2024-05-09T03:40:35.621Z,45.56
2024-05-09T03:43:02.480Z,45.76
2024-05-09T03:45:29.209Z,45.84
2024-05-09T03:47:56.193Z,45.78
2024-05-09T03:50:30.050Z,45.76
2024-05-09T03:53:01.592Z,45.81
2024-05-09T03:55:28.746Z,45.79
2024-05-09T03:57:55.447Z,45.81
2024-05-09T04:00:31.055Z,45.88
2024-05-09T04:03:06.411Z,45.82
2024-05-09T04:05:35.266Z,45.98
2024-05-09T04:08:02.465Z,45.96
2024-05-09T04:10:33.479Z,46.27
2024-05-09T04:13:02.786Z,46.14
2024-05-09T04:15:29.817Z,46.28
2024-05-09T04:17:57.192Z,46.21
2024-05-09T04:20:33.593Z,46.30
2024-05-09T04:23:07.162Z,46.35
2024-05-09T04:25:34.973Z,46.22
2024-05-09T04:28:01.900Z,46.28
2024-05-09T04:30:37.597Z,46.39
2024-05-09T04:33:10.296Z,46.53
2024-05-09T04:35:39.334Z,46.38
2024-05-09T04:38:06.619Z,46.54
2024-05-09T04:40:36.329Z,46.47
2024-05-09T04:43:14.902Z,46.68
2024-05-09T04:45:41.770Z,46.75
2024-05-09T04:48:09.052Z,46.63
2024-05-09T04:50:38.761Z,46.70
2024-05-09T04:53:11.060Z,46.81
2024-05-09T04:55:38.884Z,46.85
2024-05-09T04:58:08.408Z,46.94
2024-05-09T05:00:37.645Z,46.85
2024-05-09T05:03:08.375Z,46.83
2024-05-09T05:05:40.738Z,46.86
2024-05-09T05:08:12.142Z,46.92
2024-05-09T05:10:39.161Z,46.83
2024-05-09T05:13:24.892Z,46.90
2024-05-09T05:15:55.592Z,46.94
2024-05-09T05:18:23.607Z,47.04
2024-05-09T05:20:50.780Z,46.92
2024-05-09T05:23:22.141Z,46.89
2024-05-09T05:25:51.270Z,47.00
2024-05-09T05:28:19.309Z,47.11
2024-05-09T05:30:46.704Z,47.12
2024-05-09T05:33:15.142Z,47.17
2024-05-09T05:35:42.605Z,47.17
2024-05-09T05:38:10.779Z,47.35
2024-05-09T05:40:39.637Z,47.04
2024-05-09T05:43:09.999Z,46.77
2024-05-09T05:45:37.606Z,46.92
2024-05-09T05:48:06.370Z,46.85
2024-05-09T05:50:36.632Z,46.90
2024-05-09T05:53:07.512Z,46.85
2024-05-09T05:55:36.309Z,46.81
2024-05-09T05:58:03.255Z,46.96
2024-05-09T06:00:37.836Z,46.80
2024-05-09T06:03:07.700Z,46.94
2024-05-09T06:05:36.410Z,46.71
2024-05-09T06:08:03.617Z,46.76
2024-05-09T06:10:37.741Z,46.68
2024-05-09T06:13:07.787Z,46.45
2024-05-09T06:15:34.769Z,46.57
2024-05-09T06:18:01.979Z,46.72
2024-05-09T06:20:35.747Z,46.53
2024-05-09T06:23:06.803Z,46.40
2024-05-09T06:25:34.752Z,46.31
2024-05-09T06:28:02.216Z,46.27
2024-05-09T06:30:37.863Z,46.19
2024-05-09T06:33:10.093Z,45.88
2024-05-09T06:35:38.461Z,45.92
2024-05-09T06:38:08.766Z,46.04
2024-05-09T06:40:38.752Z,45.86
2024-05-09T06:43:11.519Z,45.97
2024-05-09T06:45:39.427Z,45.95
2024-05-09T06:48:07.269Z,46.03
2024-05-09T06:50:37.933Z,45.77
2024-05-09T06:53:06.956Z,45.78
2024-05-09T06:55:33.961Z,45.74
2024-05-09T06:58:00.854Z,45.72
2024-05-09T07:00:35.450Z,45.85
2024-05-09T07:03:19.484Z,45.88
2024-05-09T07:05:48.324Z,45.85
2024-05-09T07:08:16.688Z,45.54
2024-05-09T07:10:44.287Z,45.65
2024-05-09T07:13:12.913Z,45.71
2024-05-09T07:15:41.473Z,45.68
2024-05-09T07:18:13.242Z,45.53
2024-05-09T07:20:41.217Z,45.70
2024-05-09T07:23:09.926Z,45.59
2024-05-09T07:25:37.575Z,45.61
2024-05-09T07:28:04.729Z,45.49
2024-05-09T07:30:34.341Z,45.29
2024-05-09T07:33:03.550Z,45.29
2024-05-09T07:35:31.211Z,45.27
2024-05-09T07:37:58.544Z,45.05
2024-05-09T07:40:33.112Z,45.01
2024-05-09T07:43:13.773Z,44.90
2024-05-09T07:45:50.428Z,44.87
2024-05-09T07:52:38.596Z,44.78
2024-05-09T07:53:46.553Z,44.54
2024-05-09T07:56:17.469Z,44.48
2024-05-09T07:58:45.678Z,44.53
2024-05-09T08:01:12.837Z,44.49
2024-05-09T08:03:39.978Z,44.36
2024-05-09T08:06:06.994Z,44.18
2024-05-09T08:08:33.752Z,44.27
2024-05-09T08:11:02.514Z,44.18
2024-05-09T08:13:29.433Z,44.33
2024-05-09T08:15:56.430Z,44.22
2024-05-09T08:18:23.723Z,44.21
2024-05-09T08:20:52.136Z,44.17
2024-05-09T08:23:19.061Z,44.07
2024-05-09T08:25:45.944Z,44.12
2024-05-09T08:28:12.929Z,43.88
2024-05-09T08:30:40.012Z,43.65
2024-05-09T08:33:07.795Z,43.46
2024-05-09T08:35:35.777Z,43.47
2024-05-09T08:38:04.425Z,43.72
2024-05-09T08:40:36.880Z,43.62
2024-05-09T08:43:07.931Z,43.47
2024-05-09T08:45:36.379Z,43.44
2024-05-09T08:48:07.868Z,43.48
2024-05-09T08:50:39.116Z,43.24
2024-05-09T08:53:09.994Z,42.94
2024-05-09T08:55:40.707Z,43.17
2024-05-09T08:58:16.187Z,42.99
2024-05-09T09:00:44.994Z,43.03
2024-05-09T09:03:18.580Z,43.01
2024-05-09T09:06:14.475Z,43.06
2024-05-09T09:08:41.367Z,43.19
2024-05-09T09:11:08.218Z,43.02
2024-05-09T09:13:34.993Z,43.02
2024-05-09T09:16:02.774Z,42.83
2024-05-09T09:18:30.259Z,42.81
2024-05-09T09:20:57.602Z,42.65
2024-05-09T09:23:27.772Z,42.54
2024-05-09T09:25:58.530Z,42.40
2024-05-09T09:28:25.449Z,42.31
2024-05-09T09:30:52.275Z,42.49
2024-05-09T09:33:19.193Z,42.26
2024-05-09T09:35:46.551Z,42.28
2024-05-09T09:38:18.173Z,42.13
2024-05-09T09:40:49.552Z,42.03
2024-05-09T09:43:22.351Z,41.63
2024-05-09T09:45:51.972Z,41.71
2024-05-09T09:48:21.469Z,41.62
2024-05-09T09:50:51.011Z,41.33
2024-05-09T09:53:19.337Z,41.51
2024-05-09T09:55:47.085Z,41.52
2024-05-09T09:58:16.933Z,41.67
2024-05-09T10:00:44.868Z,41.54
2024-05-09T10:03:12.021Z,41.27
2024-05-09T10:05:42.055Z,41.24
2024-05-09T10:08:12.326Z,41.34
2024-05-09T10:10:39.983Z,41.08
2024-05-09T10:13:07.877Z,40.92
2024-05-09T10:15:51.843Z,41.01
2024-05-09T10:18:27.258Z,40.83
2024-05-09T10:20:56.556Z,40.74
2024-05-09T10:23:27.802Z,40.68
2024-05-09T10:25:59.845Z,40.29
2024-05-09T10:28:31.471Z,40.24
2024-05-09T10:31:09.438Z,40.16
2024-05-09T10:33:45.120Z,40.05
2024-05-09T10:36:13.630Z,40.08
2024-05-09T10:38:42.700Z,40.14
2024-05-09T10:41:10.304Z,40.10
2024-05-09T10:43:40.921Z,39.99
2024-05-09T10:46:08.576Z,40.19
2024-05-09T10:48:36.824Z,39.95
2024-05-09T10:51:04.627Z,39.82
2024-05-09T10:53:32.068Z,39.64
2024-05-09T10:56:00.362Z,39.76
2024-05-09T10:58:28.080Z,39.78
2024-05-09T11:00:58.525Z,39.77
2024-05-09T11:03:25.933Z,39.60
2024-05-09T11:05:53.433Z,39.68
2024-05-09T11:08:24.206Z,39.63
2024-05-09T11:10:52.661Z,39.69
2024-05-09T11:13:30.729Z,39.82
2024-05-09T11:15:58.738Z,39.55
2024-05-09T11:18:28.933Z,39.18
2024-05-09T11:20:58.258Z,39.33
2024-05-09T11:23:27.415Z,39.28
2024-05-09T11:25:56.188Z,39.30
2024-05-09T11:28:23.795Z,39.12
2024-05-09T11:30:51.550Z,39.07
2024-05-09T11:33:19.624Z,39.09
2024-05-09T11:35:47.271Z,39.09
2024-05-09T11:38:14.325Z,38.88
2024-05-09T11:40:41.762Z,38.63
2024-05-09T11:43:08.748Z,38.69
2024-05-09T11:45:35.592Z,38.67
2024-05-09T11:48:03.856Z,38.58
2024-05-09T11:50:35.308Z,38.68
2024-05-09T11:53:03.264Z,38.64
2024-05-09T11:55:30.694Z,38.56
2024-05-09T11:57:57.881Z,38.49
2024-05-09T12:00:33.024Z,38.32
2024-05-09T12:03:04.973Z,38.22
2024-05-09T12:05:32.853Z,38.30
2024-05-09T12:08:00.531Z,38.21
2024-05-09T12:10:33.143Z,38.21
2024-05-09T12:13:04.935Z,38.12
2024-05-09T12:15:33.756Z,38.05
2024-05-09T12:18:03.398Z,37.73
2024-05-09T12:20:36.796Z,37.70
2024-05-09T12:23:07.095Z,37.67
2024-05-09T12:25:34.886Z,37.61
2024-05-09T12:28:02.009Z,37.54
2024-05-09T12:30:36.260Z,37.77
2024-05-09T12:33:07.983Z,37.70
2024-05-09T12:35:35.154Z,37.50
2024-05-09T12:38:02.946Z,37.36
2024-05-09T12:40:35.858Z,37.34
2024-05-09T12:43:09.124Z,37.24
2024-05-09T12:45:37.644Z,37.28
2024-05-09T12:48:08.182Z,37.07
2024-05-09T12:50:35.951Z,37.01
2024-05-09T12:53:03.978Z,36.98
2024-05-09T12:55:40.385Z,36.90
2024-05-09T12:58:16.748Z,36.76
2024-05-09T13:00:44.912Z,36.70
2024-05-09T13:03:12.065Z,36.69
2024-05-09T13:05:41.115Z,36.69
2024-05-09T13:08:08.588Z,36.71
2024-05-09T13:10:35.920Z,36.64
2024-05-09T13:13:02.878Z,36.40
2024-05-09T13:15:31.272Z,36.47
2024-05-09T13:18:02.035Z,36.39
2024-05-09T13:20:34.082Z,36.44
2024-05-09T13:23:05.417Z,36.26
2024-05-09T13:25:34.813Z,36.48
2024-05-09T13:28:06.287Z,36.31
2024-05-09T13:30:39.796Z,36.13
2024-05-09T13:33:09.406Z,36.22
2024-05-09T13:35:36.650Z,35.97
2024-05-09T13:38:04.452Z,35.86
2024-05-09T13:40:34.820Z,35.94
2024-05-09T13:43:06.204Z,36.08
2024-05-09T13:45:33.962Z,35.86
2024-05-09T13:48:02.348Z,36.01
2024-05-09T13:50:34.566Z,35.94
2024-05-09T13:53:05.103Z,35.98
2024-05-09T13:55:32.899Z,35.94
2024-05-09T13:58:00.045Z,35.84
2024-05-09T14:00:38.035Z,35.78
2024-05-09T14:03:11.848Z,35.72
2024-05-09T14:05:39.275Z,35.56
2024-05-09T14:08:06.869Z,35.69
2024-05-09T14:10:34.559Z,35.71
2024-05-09T14:13:01.711Z,35.53
2024-05-09T14:15:28.706Z,35.54
2024-05-09T14:17:55.739Z,35.45
2024-05-09T14:20:30.715Z,35.43
2024-05-09T14:23:00.841Z,35.43
2024-05-09T14:25:29.683Z,35.48
2024-05-09T14:27:59.972Z,35.48
2024-05-09T14:30:34.684Z,35.37
2024-05-09T14:33:06.350Z,35.40
2024-05-09T14:35:34.045Z,35.11
2024-05-09T14:38:01.268Z,35.24
2024-05-09T14:40:38.804Z,35.14
2024-05-09T14:43:14.241Z,35.07
2024-05-09T14:45:43.114Z,35.03
2024-05-09T14:48:11.605Z,35.14
2024-05-09T14:50:40.291Z,35.13
2024-05-09T14:53:10.081Z,35.03
2024-05-09T14:55:38.876Z,35.12
2024-05-09T14:58:07.041Z,35.05
2024-05-09T15:00:41.651Z,35.03
2024-05-09T15:03:11.824Z,35.03
2024-05-09T15:05:39.099Z,34.95
2024-05-09T15:08:07.262Z,34.97
2024-05-09T15:10:36.249Z,35.05
2024-05-09T15:13:04.862Z,34.92
2024-05-09T15:15:32.003Z,34.94
2024-05-09T15:17:59.269Z,34.80
2024-05-09T15:20:33.272Z,34.89
2024-05-09T15:23:03.539Z,34.78
2024-05-09T15:25:30.849Z,34.91
2024-05-09T15:27:57.970Z,34.78
2024-05-09T15:30:30.246Z,34.95
2024-05-09T15:33:00.854Z,34.85
2024-05-09T15:35:28.110Z,34.77
2024-05-09T15:37:55.712Z,34.79
2024-05-09T15:40:34.428Z,34.85
2024-05-09T15:43:06.180Z,34.76
2024-05-09T15:45:34.243Z,34.89
2024-05-09T15:48:02.562Z,34.84
2024-05-09T15:50:36.969Z,34.75
2024-05-09T15:53:08.421Z,34.80
2024-05-09T15:55:36.314Z,34.70
2024-05-09T15:58:04.625Z,34.64
2024-05-09T16:00:37.733Z,34.75
2024-05-09T16:03:09.411Z,34.72
2024-05-09T16:05:37.224Z,34.76
2024-05-09T16:08:05.385Z,34.77
2024-05-09T16:10:33.972Z,34.86
2024-05-09T16:13:02.826Z,34.87
2024-05-09T16:15:30.515Z,34.71
2024-05-09T16:17:57.720Z,34.88
2024-05-09T16:20:34.408Z,34.71
2024-05-09T16:23:07.941Z,34.61
2024-05-09T16:25:35.341Z,34.73
2024-05-09T16:28:06.377Z,34.72
2024-05-09T16:30:36.477Z,34.81
2024-05-09T16:33:04.958Z,34.72
2024-05-09T16:35:32.815Z,34.86
2024-05-09T16:38:02.058Z,34.82
2024-05-09T16:40:36.447Z,34.85
2024-05-09T16:43:07.552Z,34.77
2024-05-09T16:45:35.438Z,34.87
2024-05-09T16:48:03.594Z,34.91
2024-05-09T16:50:33.810Z,34.91
2024-05-09T16:53:03.871Z,34.83
2024-05-09T16:55:31.263Z,34.97
2024-05-09T16:57:58.525Z,34.79
2024-05-09T17:00:35.753Z,34.98
2024-05-09T17:03:09.769Z,34.79
2024-05-09T17:05:37.647Z,34.98
2024-05-09T17:08:05.442Z,34.94
2024-05-09T17:10:34.371Z,34.99
2024-05-09T17:13:07.110Z,35.06
2024-05-09T17:15:36.811Z,35.04
2024-05-09T17:18:05.401Z,35.01
2024-05-09T17:20:35.659Z,35.00
2024-05-09T17:23:12.080Z,34.98
2024-05-09T17:25:39.795Z,34.98
2024-05-09T17:28:08.239Z,34.98
2024-05-09T17:30:38.428Z,35.16
2024-05-09T17:33:08.796Z,35.07
2024-05-09T17:35:37.041Z,35.08
2024-05-09T17:38:05.655Z,35.07
2024-05-09T17:40:35.895Z,35.19
2024-05-09T17:43:06.274Z,35.25
2024-05-09T17:45:34.305Z,35.32
2024-05-09T17:48:01.977Z,35.29
2024-05-09T17:50:35.502Z,35.31
2024-05-09T17:53:08.371Z,35.30
2024-05-09T17:55:36.144Z,35.39
2024-05-09T17:58:04.729Z,35.46
2024-05-09T18:00:38.149Z,35.37
2024-05-09T18:03:10.403Z,35.28
2024-05-09T18:05:38.187Z,35.65
2024-05-09T18:08:06.782Z,35.60
2024-05-09T18:10:37.894Z,35.64
2024-05-09T18:13:11.542Z,35.82
2024-05-09T18:15:39.796Z,35.83
2024-05-09T18:18:07.658Z,35.72
2024-05-09T18:20:42.165Z,35.83
2024-05-09T18:23:15.313Z,35.81
2024-05-09T18:25:43.607Z,35.93
2024-05-09T18:28:10.689Z,36.02
2024-05-09T18:30:38.112Z,36.08
2024-05-09T18:33:07.473Z,36.10
2024-05-09T18:35:35.974Z,36.14
2024-05-09T18:38:03.617Z,36.26
2024-05-09T18:40:34.631Z,36.11
2024-05-09T18:43:05.643Z,36.19
2024-05-09T18:45:34.042Z,36.32
2024-05-09T18:48:01.303Z,36.39
2024-05-09T18:50:34.676Z,36.29
2024-05-09T18:53:09.618Z,36.28
2024-05-09T18:55:36.371Z,36.55
2024-05-09T18:58:06.386Z,36.58
2024-05-09T19:00:36.983Z,36.50
2024-05-09T19:03:09.101Z,36.47
2024-05-09T19:05:38.440Z,36.51
2024-05-09T19:08:07.143Z,36.63
2024-05-09T19:10:35.516Z,36.75
2024-05-09T19:13:08.219Z,36.75
2024-05-09T19:15:39.520Z,36.69
2024-05-09T19:18:07.459Z,36.97
2024-05-09T19:20:36.336Z,36.83
2024-05-09T19:23:05.378Z,36.91
2024-05-09T19:25:32.824Z,37.09
2024-05-09T19:28:00.891Z,37.10
2024-05-09T19:30:36.890Z,36.96
2024-05-09T19:33:08.408Z,37.23
2024-05-09T19:35:35.692Z,37.10
2024-05-09T19:38:02.823Z,37.15
2024-05-09T19:40:32.352Z,37.20
2024-05-09T19:43:02.604Z,37.25
2024-05-09T19:45:30.542Z,37.25
2024-05-09T19:47:57.834Z,37.36
2024-05-09T19:50:32.592Z,37.39
2024-05-09T19:53:07.766Z,37.53
2024-05-09T19:55:34.812Z,37.42
2024-05-09T19:58:04.873Z,37.51
2024-05-09T20:00:39.928Z,37.59
2024-05-09T20:03:09.650Z,37.67
2024-05-09T20:05:37.797Z,37.58
2024-05-09T20:08:05.823Z,37.89
2024-05-09T20:10:35.220Z,37.75
2024-05-09T20:13:04.834Z,37.90
2024-05-09T20:15:34.536Z,37.82
2024-05-09T20:18:02.021Z,37.88
2024-05-09T20:20:37.026Z,38.03
2024-05-09T20:23:08.651Z,37.82
2024-05-09T20:25:35.630Z,38.02
2024-05-09T20:28:11.999Z,38.26
2024-05-09T20:30:39.026Z,38.23
2024-05-09T20:33:07.575Z,38.28
2024-05-09T20:35:35.701Z,38.22
2024-05-09T20:38:03.599Z,38.24
2024-05-09T20:40:35.552Z,38.27
2024-05-09T20:43:06.397Z,38.29
2024-05-09T20:45:34.188Z,38.64
2024-05-09T20:48:01.532Z,38.44
2024-05-09T20:50:36.722Z,38.33
2024-05-09T20:53:09.217Z,38.44
2024-05-09T20:55:36.552Z,38.63
2024-05-09T20:58:03.380Z,38.59
2024-05-09T21:00:38.796Z,38.74
2024-05-09T21:03:10.166Z,38.85
2024-05-09T21:05:37.346Z,38.83
2024-05-09T21:08:04.667Z,38.92
2024-05-09T21:10:33.457Z,38.93
2024-05-09T21:13:03.102Z,38.93
2024-05-09T21:15:31.229Z,39.03
2024-05-09T21:17:58.619Z,39.01
2024-05-09T21:20:31.235Z,38.98
2024-05-09T21:23:00.317Z,39.12
2024-05-09T21:25:27.221Z,39.09
2024-05-09T21:27:54.497Z,39.28
2024-05-09T21:30:31.858Z,38.99
2024-05-09T21:33:12.686Z,39.39
2024-05-09T21:35:42.349Z,39.42
2024-05-09T21:38:09.916Z,39.23
2024-05-09T21:40:37.944Z,39.30
2024-05-09T21:43:06.835Z,39.35
2024-05-09T21:45:35.168Z,39.49
2024-05-09T21:48:06.316Z,39.60
2024-05-09T21:50:39.829Z,39.39
2024-05-09T21:53:10.399Z,39.71
2024-05-09T21:55:37.300Z,39.66
2024-05-09T21:58:04.386Z,39.85
2024-05-09T22:00:36.924Z,39.77
2024-05-09T22:03:10.293Z,39.71
2024-05-09T22:05:41.376Z,39.86
2024-05-09T22:08:08.302Z,40.04
2024-05-09T22:10:36.844Z,39.89
2024-05-09T22:13:08.522Z,40.04
2024-05-09T22:15:37.656Z,39.98
2024-05-09T22:18:07.455Z,40.04
2024-05-09T22:20:38.254Z,40.20
2024-05-09T22:23:07.680Z,40.09
2024-05-09T22:25:35.239Z,40.09
2024-05-09T22:28:03.066Z,40.11
2024-05-09T22:30:36.092Z,40.13
2024-05-09T22:33:11.328Z,40.25
2024-05-09T22:35:40.072Z,40.31
2024-05-09T22:38:07.244Z,40.47
2024-05-09T22:40:44.838Z,40.34
2024-05-09T22:43:23.804Z,40.45
2024-05-09T22:45:55.554Z,40.36
2024-05-09T22:48:23.814Z,40.43
2024-05-09T22:50:51.739Z,40.54
2024-05-09T22:53:18.895Z,40.62
2024-05-09T22:55:45.843Z,40.75
2024-05-09T22:58:12.666Z,40.58
2024-05-09T23:00:39.798Z,40.63
2024-05-09T23:03:06.749Z,40.54
2024-05-09T23:05:33.746Z,40.68
2024-05-09T23:08:01.974Z,40.73
2024-05-09T23:10:35.537Z,40.77
2024-05-09T23:13:05.254Z,40.88
2024-05-09T23:15:32.125Z,41.04
2024-05-09T23:17:59.320Z,41.13
2024-05-09T23:20:33.847Z,40.99
2024-05-09T23:23:06.082Z,41.03
2024-05-09T23:25:32.953Z,41.11
2024-05-09T23:27:59.988Z,41.20
2024-05-09T23:32:56.665Z,41.28
2024-05-09T23:35:23.401Z,41.41
2024-05-09T23:37:50.285Z,41.36
2024-05-09T23:40:19.100Z,41.40
2024-05-09T23:42:49.549Z,41.27
2024-05-09T23:45:16.453Z,41.61
2024-05-09T23:47:43.567Z,41.62
2024-05-09T23:50:16.800Z,41.50
2024-05-09T23:52:50.605Z,41.47
2024-05-09T23:55:17.570Z,41.76
2024-05-09T23:57:44.663Z,41.77
